Litchfield, New Hampshire
Current Conditions -  °F | °C
As of 5:55 PM on Wednesday 26 Nov 2014 (Local Time) from KASH Reporting Station
Light Snow Light Snow  
Wind Chill: 28°   Ceiling: NA
Heat Index: 34°   Visibility: 0.75mi
Dew Point: 32°   Wind: 7mph
Humidity: 93%   Direction: 10°N
Pressure: 29.92"   Gusts: NA
Location:  42.84°N, 71.48°W
Report Text: KASH 262255Z 01006KT 3/4SM -SN BR 01/00 A2992 RMK AO2 P0000
Loading
Personal Weather Stations






























Interactive Weather Map New forecast layout! Learn more

10-Day Weather Forecast

Advertisements
Track Severe Weather on mobile